createdAt,value
2023-03-02T05:30:37.604Z,101229.25
2023-03-02T05:40:40.518Z,101225.66
2023-03-02T05:50:42.905Z,101225.59
2023-03-02T06:00:48.326Z,101225.28
2023-03-02T06:10:55.926Z,101235.50
2023-03-02T06:20:58.367Z,101242.97
2023-03-02T06:31:00.742Z,101250.72
2023-03-02T06:41:02.828Z,101256.72
2023-03-02T06:51:05.624Z,101271.16
2023-03-02T07:01:08.226Z,101269.84
2023-03-02T07:11:12.531Z,101282.41
2023-03-02T07:21:14.881Z,101271.63
2023-03-02T07:31:17.075Z,101271.91
2023-03-02T07:41:19.542Z,101271.78
2023-03-02T07:51:21.698Z,101266.28
2023-03-02T08:01:24.197Z,101278.16
2023-03-02T08:11:26.383Z,101282.88
2023-03-02T08:21:29.104Z,101268.63
2023-03-02T08:31:32.022Z,101267.47
2023-03-02T08:41:35.187Z,101262.72
2023-03-02T08:51:37.664Z,101256.56
2023-03-02T09:01:41.007Z,101248.94
2023-03-02T09:11:44.698Z,101239.66
2023-03-02T09:21:47.124Z,101224.03
2023-03-02T09:31:49.529Z,101221.81
2023-03-02T09:42:05.602Z,101217.28
2023-03-02T09:52:19.973Z,101213.47
2023-03-02T10:02:36.420Z,101205.94
2023-03-02T10:13:02.957Z,101207.34
2023-03-02T10:23:40.417Z,101202.44
2023-03-02T10:33:43.041Z,101201.78
2023-03-02T10:43:47.076Z,101192.44
2023-03-02T10:53:49.258Z,101196.19
2023-03-02T11:03:59.894Z,101190.78
2023-03-02T11:14:16.469Z,101180.81
2023-03-02T11:24:36.421Z,101175.78
2023-03-02T11:34:48.831Z,101186.13
2023-03-02T11:44:51.288Z,101170.94
2023-03-02T11:55:05.308Z,101160.19
2023-03-02T12:05:43.472Z,101150.03
2023-03-02T12:15:51.802Z,101129.66
2023-03-02T12:26:25.507Z,101116.38
2023-03-02T12:36:32.450Z,101104.19
2023-03-02T12:46:40.073Z,101096.56
2023-03-02T12:56:42.671Z,101087.66
2023-03-02T13:06:44.845Z,101070.44
2023-03-02T13:17:03.085Z,101044.41
2023-03-02T13:27:07.656Z,101042.44
2023-03-02T13:37:20.922Z,101038.97
2023-03-02T13:47:24.416Z,101033.44
2023-03-02T13:57:31.037Z,101032.09
2023-03-02T14:07:33.170Z,101015.16
2023-03-02T14:17:35.521Z,101004.50
2023-03-02T14:27:38.264Z,100992.22
2023-03-02T14:37:44.140Z,100979.69
2023-03-02T14:47:46.355Z,100977.19
2023-03-02T14:57:56.045Z,100978.66
2023-03-02T15:07:59.278Z,100972.53
2023-03-02T15:18:02.974Z,100963.47
2023-03-02T15:28:05.673Z,100967.84
2023-03-02T15:38:08.832Z,100965.56
2023-03-02T15:48:12.715Z,100969.16
2023-03-02T15:58:17.745Z,100976.31
2023-03-02T16:08:19.922Z,100983.44
2023-03-02T16:18:22.614Z,100986.44
2023-03-02T16:28:24.750Z,100993.50
2023-03-02T16:38:26.918Z,101003.34
2023-03-02T16:48:29.037Z,101012.03
2023-03-02T16:58:31.485Z,101021.25
2023-03-02T17:08:33.926Z,101026.69
2023-03-02T17:18:36.193Z,101042.16
2023-03-02T17:28:39.228Z,101046.50
2023-03-02T17:38:41.885Z,101083.25
2023-03-02T17:48:44.015Z,101089.38
2023-03-02T17:58:46.448Z,101108.44
2023-03-02T18:08:49.705Z,101118.13
2023-03-02T18:18:53.891Z,101136.13
2023-03-02T18:28:56.219Z,101144.03
2023-03-02T18:38:58.418Z,101159.22
2023-03-02T18:49:00.913Z,101184.53
2023-03-02T18:59:05.626Z,101191.31
2023-03-02T19:09:07.753Z,101202.59
2023-03-02T19:19:09.956Z,101201.94
2023-03-02T19:29:12.789Z,101203.50
2023-03-02T19:39:14.907Z,101235.16
2023-03-02T19:49:17.092Z,101238.31
2023-03-02T19:59:23.229Z,101240.59
2023-03-02T20:09:25.355Z,101252.81
2023-03-02T20:19:27.580Z,101249.31
2023-03-02T20:29:29.782Z,101261.69
2023-03-02T20:39:34.856Z,101272.03
2023-03-02T20:49:37.821Z,101276.16
2023-03-02T20:59:40.828Z,101276.53
2023-03-02T21:09:44.040Z,101277.09
2023-03-02T21:19:46.336Z,101274.94
2023-03-02T21:29:49.209Z,101265.69
2023-03-02T21:39:51.303Z,101262.41
2023-03-02T21:49:53.406Z,101254.81
2023-03-02T21:59:56.614Z,101263.03
2023-03-02T22:09:58.931Z,101255.66
2023-03-02T22:20:00.994Z,101254.66
2023-03-02T22:30:15.443Z,101264.75
2023-03-02T22:40:32.730Z,101270.69
2023-03-02T22:50:34.873Z,101265.56
2023-03-02T23:00:40.778Z,101271.53
2023-03-02T23:10:43.688Z,101281.84
2023-03-02T23:20:45.769Z,101278.78
2023-03-02T23:30:47.852Z,101279.16
2023-03-02T23:40:49.933Z,101281.91
2023-03-02T23:50:52.194Z,101273.38
